createdAt,value
2019-03-05T00:00:54.365Z,4.90
2019-03-05T00:03:22.802Z,4.90
2019-03-05T00:06:10.676Z,4.90
2019-03-05T00:08:39.187Z,4.90
2019-03-05T00:11:07.698Z,4.90
2019-03-05T00:13:36.208Z,4.90
2019-03-05T00:16:04.887Z,4.90
2019-03-05T00:18:52.682Z,4.90
2019-03-05T00:21:40.470Z,4.90
2019-03-05T00:24:45.662Z,5.00
2019-03-05T00:27:14.102Z,4.90
2019-03-05T00:30:00.694Z,4.90
2019-03-05T00:32:29.170Z,4.80
2019-03-05T00:35:21.675Z,4.80
2019-03-05T00:37:58.842Z,4.80
2019-03-05T00:40:48.253Z,4.80
2019-03-05T00:43:19.770Z,4.80
2019-03-05T00:46:09.115Z,4.70
2019-03-05T00:48:55.027Z,4.70
2019-03-05T00:51:53.369Z,4.70
2019-03-05T00:54:41.390Z,4.60
2019-03-05T00:57:45.747Z,4.50
2019-03-05T01:00:20.682Z,4.40
2019-03-05T01:02:57.994Z,4.40
2019-03-05T01:05:53.455Z,4.40
2019-03-05T01:08:22.208Z,4.40
2019-03-05T01:13:59.305Z,4.50
2019-03-05T01:16:29.386Z,4.60
2019-03-05T01:18:57.843Z,4.60
2019-03-05T01:21:26.274Z,4.60
2019-03-05T01:23:54.807Z,4.70
2019-03-05T01:26:23.242Z,4.70
2019-03-05T01:28:51.759Z,4.80
2019-03-05T01:31:39.474Z,4.70
2019-03-05T01:34:24.650Z,4.70
2019-03-05T01:36:57.394Z,4.70
2019-03-05T01:39:27.482Z,4.70
2019-03-05T01:41:55.937Z,4.60
2019-03-05T01:44:24.653Z,4.60
2019-03-05T01:46:53.153Z,4.60
2019-03-05T01:49:21.612Z,4.60
2019-03-05T01:51:50.052Z,4.70
2019-03-05T01:54:18.498Z,4.70
2019-03-05T01:56:46.931Z,4.60
2019-03-05T01:59:15.390Z,4.70
2019-03-05T02:01:43.898Z,4.80
2019-03-05T02:04:12.419Z,4.80
2019-03-05T02:06:40.874Z,4.70
2019-03-05T02:09:10.754Z,4.70
2019-03-05T02:11:39.222Z,4.60
2019-03-05T02:14:08.031Z,4.60
2019-03-05T02:16:36.568Z,4.50
2019-03-05T02:22:30.570Z,4.50
2019-03-05T02:25:19.897Z,4.50
2019-03-05T02:28:00.103Z,4.50
2019-03-05T02:30:43.671Z,4.50
2019-03-05T02:33:51.319Z,4.50
2019-03-05T02:36:39.376Z,4.50
2019-03-05T02:40:03.532Z,4.50
2019-03-05T02:42:46.847Z,4.50
2019-03-05T02:45:36.389Z,4.50
2019-03-05T02:48:39.174Z,4.50
2019-03-05T02:51:36.273Z,4.50
2019-03-05T02:54:31.604Z,4.60
2019-03-05T02:57:08.368Z,4.60
2019-03-05T02:59:37.025Z,4.60
2019-03-05T03:02:26.308Z,4.50
2019-03-05T03:04:56.483Z,4.50
2019-03-05T03:07:25.062Z,4.50
2019-03-05T03:09:56.640Z,4.50
2019-03-05T03:12:25.255Z,4.60
2019-03-05T03:14:53.775Z,4.50
2019-03-05T03:17:22.216Z,4.50
2019-03-05T03:19:50.693Z,4.50
2019-03-05T03:22:19.195Z,4.50
2019-03-05T03:24:47.751Z,4.60
2019-03-05T03:27:16.268Z,4.60
2019-03-05T03:29:44.827Z,4.60
2019-03-05T03:35:20.518Z,4.60
2019-03-05T03:37:49.046Z,4.50
2019-03-05T03:40:19.291Z,4.50
2019-03-05T03:42:47.892Z,4.50
2019-03-05T03:45:20.571Z,4.50
2019-03-05T03:47:49.075Z,4.50
2019-03-05T03:50:17.606Z,4.70
2019-03-05T03:52:46.111Z,4.70
2019-03-05T03:55:15.525Z,4.80
2019-03-05T03:57:44.121Z,4.80
2019-03-05T04:00:16.013Z,4.80
2019-03-05T04:02:44.511Z,4.80
2019-03-05T04:05:13.040Z,4.80
2019-03-05T04:07:42.286Z,4.80
2019-03-05T04:10:15.370Z,4.80
2019-03-05T04:12:43.811Z,4.80
2019-03-05T04:15:14.741Z,4.90
2019-03-05T04:18:02.619Z,4.90
2019-03-05T04:20:32.529Z,4.90
2019-03-05T04:23:01.043Z,4.90
2019-03-05T04:25:29.558Z,4.90
2019-03-05T04:27:58.002Z,4.90
2019-03-05T04:30:26.537Z,4.90
2019-03-05T04:32:55.039Z,4.90
2019-03-05T04:35:23.527Z,4.90
2019-03-05T04:37:52.002Z,5.00
2019-03-05T04:40:20.438Z,4.90
2019-03-05T04:42:48.872Z,5.00
2019-03-05T04:45:42.122Z,5.00
2019-03-05T04:48:11.550Z,5.00
2019-03-05T04:50:45.028Z,5.00
2019-03-05T04:53:13.486Z,4.90
2019-03-05T04:56:01.332Z,5.00
2019-03-05T04:58:29.794Z,5.00
2019-03-05T05:00:58.230Z,4.90
2019-03-05T05:03:26.658Z,4.90
2019-03-05T05:05:55.235Z,4.90
2019-03-05T05:08:23.673Z,4.90
2019-03-05T05:10:52.109Z,4.90
2019-03-05T05:13:20.562Z,4.90
2019-03-05T05:15:49.094Z,4.80
2019-03-05T05:18:17.560Z,4.80
2019-03-05T05:20:46.129Z,4.90
2019-03-05T05:23:14.568Z,4.80
2019-03-05T05:25:43.554Z,4.80
2019-03-05T05:28:12.395Z,4.80
2019-03-05T05:30:43.490Z,4.70
2019-03-05T05:33:11.946Z,4.80
2019-03-05T05:35:40.457Z,4.60
2019-03-05T05:38:08.911Z,4.60
2019-03-05T05:40:40.423Z,4.50
2019-03-05T05:43:11.771Z,4.50
2019-03-05T05:45:42.837Z,4.50
2019-03-05T05:48:11.588Z,4.50
2019-03-05T05:50:40.200Z,4.50
2019-03-05T05:53:08.650Z,4.50
2019-03-05T05:55:37.091Z,4.40
2019-03-05T05:58:05.545Z,4.50
2019-03-05T06:00:35.698Z,4.40
2019-03-05T06:03:04.127Z,4.40
2019-03-05T06:05:32.585Z,4.40
2019-03-05T06:08:01.019Z,4.50
2019-03-05T06:10:29.524Z,4.40
2019-03-05T06:12:57.974Z,4.40
2019-03-05T06:15:26.483Z,4.40
2019-03-05T06:17:55.012Z,4.40
2019-03-05T06:20:23.443Z,4.40
2019-03-05T06:22:51.881Z,4.30
2019-03-05T06:25:20.332Z,4.40
2019-03-05T06:27:48.766Z,4.30
2019-03-05T06:30:19.533Z,4.40
2019-03-05T06:32:47.983Z,4.40
2019-03-05T06:35:16.424Z,4.60
2019-03-05T06:37:44.879Z,4.70
2019-03-05T06:40:21.214Z,5.00
2019-03-05T06:42:49.749Z,5.20
2019-03-05T06:45:19.419Z,5.10
2019-03-05T06:47:47.995Z,5.10
2019-03-05T06:50:21.621Z,5.20
2019-03-05T06:52:50.061Z,5.30
2019-03-05T06:55:18.629Z,5.40
2019-03-05T06:57:47.078Z,5.50
2019-03-05T07:00:20.228Z,5.60
2019-03-05T07:02:48.676Z,5.80
2019-03-05T07:05:53.183Z,5.90
2019-03-05T07:08:21.694Z,6.00
2019-03-05T07:10:53.283Z,6.10
2019-03-05T07:13:21.745Z,5.90
2019-03-05T07:15:59.007Z,5.80
2019-03-05T07:18:30.785Z,5.90
2019-03-05T07:21:20.098Z,5.90
2019-03-05T07:24:14.026Z,5.90
2019-03-05T07:26:42.460Z,5.90
2019-03-05T07:29:10.911Z,6.00
2019-03-05T07:31:39.364Z,6.10
2019-03-05T07:34:09.450Z,6.10
2019-03-05T07:36:38.022Z,6.10
2019-03-05T07:39:08.691Z,6.10
2019-03-05T07:41:37.134Z,6.20
2019-03-05T07:44:24.939Z,6.40
2019-03-05T07:46:53.379Z,6.90
2019-03-05T07:49:21.816Z,7.30
2019-03-05T07:51:50.338Z,7.60
2019-03-05T07:54:18.853Z,7.70
2019-03-05T07:56:47.306Z,8.00
2019-03-05T07:59:35.080Z,7.90
2019-03-05T08:02:03.886Z,7.90
2019-03-05T08:04:32.324Z,7.70
2019-03-05T08:07:00.794Z,7.60
2019-03-05T08:09:33.737Z,7.80
2019-03-05T08:12:11.287Z,8.00
2019-03-05T08:14:57.454Z,8.20
2019-03-05T08:17:26.051Z,8.40
2019-03-05T08:19:54.492Z,8.60
2019-03-05T08:22:23.069Z,8.50
2019-03-05T08:24:51.607Z,8.70
2019-03-05T08:27:20.040Z,9.00
2019-03-05T08:29:48.543Z,9.20
2019-03-05T08:32:17.007Z,9.50
2019-03-05T08:34:45.449Z,9.70
2019-03-05T08:37:13.950Z,9.90
2019-03-05T08:39:42.412Z,9.90
2019-03-05T08:42:10.930Z,10.10
2019-03-05T08:44:49.640Z,10.00
2019-03-05T08:47:09.544Z,10.20
2019-03-05T08:49:37.982Z,10.40
2019-03-05T08:52:06.494Z,10.60
2019-03-05T08:54:34.963Z,10.80
2019-03-05T08:57:03.475Z,10.20
2019-03-05T08:59:32.730Z,9.80
2019-03-05T09:02:01.412Z,9.60
2019-03-05T09:04:29.896Z,9.70
2019-03-05T09:06:58.438Z,9.80
2019-03-05T09:09:26.900Z,9.80
2019-03-05T09:12:14.814Z,9.80
2019-03-05T09:15:02.547Z,9.80
2019-03-05T09:17:30.982Z,9.80
2019-03-05T09:19:59.424Z,9.80
2019-03-05T09:22:47.309Z,10.20
2019-03-05T09:25:17.188Z,10.30
2019-03-05T09:27:45.871Z,10.50
2019-03-05T09:30:21.882Z,10.80
2019-03-05T09:32:50.562Z,10.90
2019-03-05T09:35:19.141Z,10.80
2019-03-05T09:37:47.836Z,11.00
2019-03-05T09:40:30.183Z,10.70
2019-03-05T09:42:58.639Z,10.60
2019-03-05T09:45:28.170Z,9.90
2019-03-05T09:47:56.923Z,9.80
2019-03-05T09:50:25.449Z,10.40
2019-03-05T09:52:55.107Z,10.90
2019-03-05T09:55:26.888Z,11.60
2019-03-05T09:58:07.084Z,11.70
2019-03-05T10:00:27.847Z,12.10
2019-03-05T10:02:56.352Z,12.60
2019-03-05T10:05:24.882Z,12.70
2019-03-05T10:07:53.382Z,12.30
2019-03-05T10:10:26.138Z,12.00
2019-03-05T10:12:58.996Z,11.70
2019-03-05T10:15:25.903Z,11.40
2019-03-05T10:17:54.497Z,11.20
2019-03-05T10:20:35.729Z,10.60
2019-03-05T10:23:04.606Z,10.50
2019-03-05T10:25:33.039Z,10.10
2019-03-05T10:28:01.648Z,10.10
2019-03-05T10:30:41.030Z,10.20
2019-03-05T10:33:10.858Z,10.20
2019-03-05T10:35:39.534Z,10.20
2019-03-05T10:38:09.298Z,10.00
2019-03-05T10:40:40.630Z,10.00
2019-03-05T10:43:10.611Z,9.90
2019-03-05T10:45:40.556Z,9.90
2019-03-05T10:48:09.252Z,9.90
2019-03-05T10:50:37.828Z,9.90
2019-03-05T10:53:06.604Z,9.70
2019-03-05T10:55:35.147Z,9.70
2019-03-05T10:58:33.078Z,9.60
2019-03-05T11:00:56.064Z,9.70
2019-03-05T11:03:26.594Z,9.70
2019-03-05T11:05:55.110Z,9.50
2019-03-05T11:08:25.259Z,9.50
2019-03-05T11:10:54.374Z,9.50
2019-03-05T11:13:22.823Z,9.40
2019-03-05T11:15:56.759Z,9.40
2019-03-05T11:18:29.351Z,9.40
2019-03-05T11:20:55.670Z,9.40
2019-03-05T11:23:24.170Z,9.30
2019-03-05T11:25:52.687Z,9.30
2019-03-05T11:28:21.126Z,9.30
2019-03-05T11:30:49.689Z,9.20
2019-03-05T11:33:18.116Z,9.20
2019-03-05T11:35:46.587Z,9.20
2019-03-05T11:38:15.164Z,9.20
2019-03-05T11:40:43.733Z,9.20
2019-03-05T11:43:14.092Z,9.30
2019-03-05T11:45:43.485Z,9.30
2019-03-05T11:48:12.565Z,9.20
2019-03-05T11:50:41.218Z,9.20
2019-03-05T11:53:09.717Z,9.20
2019-03-05T11:55:38.219Z,9.20
2019-03-05T11:58:06.665Z,9.20
2019-03-05T12:00:54.759Z,9.30
2019-03-05T12:03:23.276Z,9.30
2019-03-05T12:05:51.771Z,9.30
2019-03-05T12:08:20.222Z,9.20
2019-03-05T12:10:48.727Z,9.30
2019-03-05T12:13:17.232Z,9.30
2019-03-05T12:15:46.019Z,9.20
2019-03-05T12:18:14.660Z,9.20
2019-03-05T12:20:43.246Z,9.20
2019-03-05T12:23:12.014Z,9.30
2019-03-05T12:25:41.244Z,9.40
2019-03-05T12:28:11.011Z,9.40
2019-03-05T12:30:40.188Z,9.40
2019-03-05T12:33:08.771Z,9.20
2019-03-05T12:35:37.424Z,9.20
2019-03-05T12:38:06.001Z,9.20
2019-03-05T12:40:34.515Z,9.10
2019-03-05T12:43:03.105Z,9.20
2019-03-05T12:45:31.709Z,9.10
2019-03-05T12:48:00.396Z,9.00
2019-03-05T12:50:30.818Z,9.10
2019-03-05T12:52:59.490Z,9.10
2019-03-05T12:55:27.946Z,9.10
2019-03-05T12:57:56.518Z,9.10
2019-03-05T13:00:27.059Z,9.20
2019-03-05T13:02:55.951Z,9.20
2019-03-05T13:05:24.539Z,9.20
2019-03-05T13:07:56.402Z,9.20
2019-03-05T13:10:26.662Z,9.20
2019-03-05T13:12:55.170Z,9.10
2019-03-05T13:15:29.139Z,9.10
2019-03-05T13:17:57.767Z,9.20
2019-03-05T13:20:26.552Z,9.10
2019-03-05T13:22:56.306Z,9.00
2019-03-05T13:25:28.695Z,8.90
2019-03-05T13:27:57.633Z,8.80
2019-03-05T13:30:27.056Z,8.70
2019-03-05T13:32:59.223Z,8.50
2019-03-05T13:35:30.424Z,8.40
2019-03-05T13:38:07.657Z,8.30
2019-03-05T13:40:38.531Z,8.20
2019-03-05T13:43:05.582Z,8.20
2019-03-05T13:45:34.110Z,8.20
2019-03-05T13:48:14.830Z,8.10
2019-03-05T13:50:47.467Z,8.00
2019-03-05T13:53:30.154Z,7.90
2019-03-05T13:56:28.001Z,7.80
2019-03-05T13:59:28.029Z,7.70
2019-03-05T14:01:56.555Z,7.60
2019-03-05T14:04:39.908Z,7.50
2019-03-05T14:07:38.529Z,7.50
2019-03-05T14:10:26.420Z,7.40
2019-03-05T14:12:55.113Z,7.20
2019-03-05T14:15:23.994Z,7.10
2019-03-05T14:17:52.507Z,7.00
2019-03-05T14:20:31.523Z,6.90
2019-03-05T14:22:51.199Z,6.70
2019-03-05T14:25:19.737Z,6.70
2019-03-05T14:27:48.338Z,6.60
2019-03-05T14:30:21.490Z,6.60
2019-03-05T14:32:50.011Z,6.60
2019-03-05T14:35:19.713Z,6.60
2019-03-05T14:37:48.372Z,6.50
2019-03-05T14:40:24.569Z,6.50
2019-03-05T14:42:50.335Z,6.50
2019-03-05T14:45:21.783Z,6.40
2019-03-05T14:47:50.535Z,6.40
2019-03-05T14:50:19.051Z,6.30
2019-03-05T14:52:47.503Z,6.30
2019-03-05T14:55:16.100Z,6.30
2019-03-05T14:57:44.631Z,6.30
2019-03-05T15:00:18.704Z,6.20
2019-03-05T15:02:47.285Z,6.20
2019-03-05T15:05:15.972Z,6.10
2019-03-05T15:07:47.358Z,6.10
2019-03-05T15:10:16.500Z,6.00
2019-03-05T15:12:46.675Z,5.90
2019-03-05T15:15:24.837Z,5.90
2019-03-05T15:17:53.393Z,5.90
2019-03-05T15:20:22.754Z,5.90
2019-03-05T15:22:51.995Z,5.80
2019-03-05T15:25:20.739Z,5.80
2019-03-05T15:27:50.102Z,5.70
2019-03-05T15:30:21.608Z,5.70
2019-03-05T15:32:50.917Z,5.60
2019-03-05T15:35:19.489Z,5.60
2019-03-05T15:37:47.996Z,5.50
2019-03-05T15:40:17.814Z,5.60
2019-03-05T15:42:46.469Z,5.60
2019-03-05T15:45:20.366Z,5.50
2019-03-05T15:47:49.072Z,5.50
2019-03-05T15:50:41.449Z,5.60
2019-03-05T15:53:29.475Z,5.50
2019-03-05T15:55:58.058Z,5.50
2019-03-05T15:58:26.567Z,5.40
2019-03-05T16:00:55.007Z,5.40
2019-03-05T16:03:23.540Z,5.40
2019-03-05T16:05:53.982Z,5.40
2019-03-05T16:08:25.127Z,5.50
2019-03-05T16:10:54.676Z,5.50
2019-03-05T16:13:22.482Z,5.50
2019-03-05T16:15:51.062Z,5.50
2019-03-05T16:18:19.536Z,5.50
2019-03-05T16:20:48.058Z,5.40
2019-03-05T16:23:16.497Z,5.40
2019-03-05T16:25:46.140Z,5.40
2019-03-05T16:28:15.573Z,5.50
2019-03-05T16:30:54.652Z,5.50
2019-03-05T16:33:38.460Z,5.50
2019-03-05T16:36:28.847Z,5.50
2019-03-05T16:38:59.860Z,5.50
2019-03-05T16:41:45.158Z,5.40
2019-03-05T16:44:32.943Z,5.50
2019-03-05T16:52:35.635Z,5.50
2019-03-05T16:55:17.618Z,5.60
2019-03-05T17:00:49.150Z,5.60
2019-03-05T17:03:19.617Z,5.50
2019-03-05T17:05:49.796Z,5.50
2019-03-05T17:08:28.732Z,5.50
2019-03-05T17:11:04.995Z,5.60
2019-03-05T17:13:33.460Z,5.60
2019-03-05T17:16:01.979Z,5.60
2019-03-05T17:18:30.499Z,5.50
2019-03-05T17:20:59.110Z,5.50
2019-03-05T17:23:27.618Z,5.50
2019-03-05T17:25:56.055Z,5.50
2019-03-05T17:28:24.519Z,5.40
2019-03-05T17:30:53.034Z,5.40
2019-03-05T17:33:21.479Z,5.40
2019-03-05T17:35:49.944Z,5.40
2019-03-05T17:38:18.392Z,5.40
2019-03-05T17:40:46.836Z,5.40
2019-03-05T17:43:15.316Z,5.30
2019-03-05T17:45:43.898Z,5.30
2019-03-05T17:48:12.341Z,5.30
2019-03-05T17:50:40.880Z,5.30
2019-03-05T17:53:09.481Z,5.30
2019-03-05T17:55:57.340Z,5.30
2019-03-05T17:58:25.864Z,5.30
2019-03-05T18:00:54.667Z,5.30
2019-03-05T18:03:23.339Z,5.30
2019-03-05T18:05:52.054Z,5.30
2019-03-05T18:08:20.582Z,5.30
2019-03-05T18:10:49.182Z,5.30
2019-03-05T18:13:37.036Z,5.30
2019-03-05T18:16:05.796Z,5.30
2019-03-05T18:18:34.388Z,5.30
2019-03-05T18:21:22.275Z,5.30
2019-03-05T18:23:50.807Z,5.30
2019-03-05T18:26:19.319Z,5.30
2019-03-05T18:28:47.899Z,5.30
2019-03-05T18:31:16.342Z,5.30
2019-03-05T18:33:44.851Z,5.30
2019-03-05T18:36:13.317Z,5.30
2019-03-05T18:38:41.804Z,5.20
2019-03-05T18:41:10.252Z,5.30
2019-03-05T18:43:38.792Z,5.30
2019-03-05T18:46:47.368Z,5.20
2019-03-05T18:49:35.274Z,5.20
2019-03-05T18:52:03.946Z,5.20
2019-03-05T18:54:32.468Z,5.20
2019-03-05T18:57:01.011Z,5.20
2019-03-05T18:59:29.528Z,5.20
2019-03-05T19:01:59.409Z,5.30
2019-03-05T19:04:28.233Z,5.30
2019-03-05T19:06:56.747Z,5.30
2019-03-05T19:09:25.195Z,5.30
2019-03-05T19:11:53.682Z,5.30
2019-03-05T19:14:41.475Z,5.30
2019-03-05T19:17:10.100Z,5.30
2019-03-05T19:19:38.692Z,5.40
2019-03-05T19:22:07.207Z,5.40
2019-03-05T19:24:35.747Z,5.40
2019-03-05T19:27:04.575Z,5.30
2019-03-05T19:29:33.019Z,5.40
2019-03-05T19:32:01.479Z,5.40
2019-03-05T19:34:29.926Z,5.30
2019-03-05T19:36:58.615Z,5.40
2019-03-05T19:39:27.263Z,5.40
2019-03-05T19:41:56.418Z,5.40
2019-03-05T19:44:25.055Z,5.40
2019-03-05T19:46:53.523Z,5.30
2019-03-05T19:49:21.966Z,5.30
2019-03-05T19:52:11.750Z,5.40
2019-03-05T19:54:40.382Z,5.40
2019-03-05T19:57:08.906Z,5.40
2019-03-05T19:59:37.459Z,5.40
2019-03-05T20:02:06.050Z,5.40
2019-03-05T20:04:34.577Z,5.40
2019-03-05T20:07:03.268Z,5.40
2019-03-05T20:09:32.344Z,5.40
2019-03-05T20:12:01.057Z,5.40
2019-03-05T20:14:48.946Z,5.40
2019-03-05T20:17:17.897Z,5.40
2019-03-05T20:19:46.628Z,5.40
2019-03-05T20:22:15.382Z,5.40
2019-03-05T20:24:43.845Z,5.30
2019-03-05T20:27:15.995Z,5.40
2019-03-05T20:29:42.683Z,5.40
2019-03-05T20:32:11.268Z,5.40
2019-03-05T20:34:39.888Z,5.40
2019-03-05T20:37:27.704Z,5.40
2019-03-05T20:39:56.519Z,5.40
2019-03-05T20:42:44.406Z,5.40
2019-03-05T20:45:22.249Z,5.30
2019-03-05T20:47:50.855Z,5.30
2019-03-05T20:50:19.370Z,5.30
2019-03-05T20:52:48.188Z,5.30
2019-03-05T20:55:18.682Z,5.30
2019-03-05T20:57:47.389Z,5.20
2019-03-05T21:00:27.482Z,5.20
2019-03-05T21:02:57.945Z,5.30
2019-03-05T21:05:29.079Z,5.30
2019-03-05T21:07:57.680Z,5.20
2019-03-05T21:10:26.641Z,5.20
2019-03-05T21:15:47.310Z,5.20
2019-03-05T21:18:19.526Z,5.30
2019-03-05T21:20:48.216Z,5.30
2019-03-05T21:23:16.940Z,5.30
2019-03-05T21:25:45.451Z,5.30
2019-03-05T21:28:26.012Z,5.30
2019-03-05T21:30:54.502Z,5.30
2019-03-05T21:33:23.207Z,5.30
2019-03-05T21:35:51.671Z,5.30
2019-03-05T21:38:20.186Z,5.30
2019-03-05T21:40:48.782Z,5.30
2019-03-05T21:43:17.256Z,5.30
2019-03-05T21:46:08.309Z,5.20
2019-03-05T21:48:36.868Z,5.20
2019-03-05T21:51:05.393Z,5.20
2019-03-05T21:53:33.954Z,5.20
2019-03-05T21:56:02.488Z,5.20
2019-03-05T21:58:31.067Z,5.20
2019-03-05T22:00:59.658Z,5.30
2019-03-05T22:03:28.207Z,5.30
2019-03-05T22:05:56.654Z,5.30
2019-03-05T22:08:25.169Z,5.30
2019-03-05T22:11:13.050Z,5.30
2019-03-05T22:13:41.540Z,5.40
2019-03-05T22:16:10.054Z,5.30
2019-03-05T22:18:38.595Z,5.30
2019-03-05T22:21:07.111Z,5.40
2019-03-05T22:23:35.623Z,5.30
2019-03-05T22:26:04.170Z,5.30
2019-03-05T22:28:32.992Z,5.30
2019-03-05T22:31:01.510Z,5.30
2019-03-05T22:33:30.058Z,5.30
2019-03-05T22:35:58.670Z,5.30
2019-03-05T22:38:46.494Z,5.40
2019-03-05T22:41:34.339Z,5.40
2019-03-05T22:44:02.813Z,5.40
2019-03-05T22:46:31.345Z,5.50
2019-03-05T22:48:59.862Z,5.50
2019-03-05T22:51:28.331Z,5.50
2019-03-05T22:53:56.847Z,5.50
2019-03-05T22:56:25.288Z,5.50
2019-03-05T22:58:53.792Z,5.50
2019-03-05T23:01:25.572Z,5.50
2019-03-05T23:03:54.080Z,5.50
2019-03-05T23:06:22.870Z,5.50
2019-03-05T23:08:51.514Z,5.50
2019-03-05T23:11:19.961Z,5.50
2019-03-05T23:13:48.632Z,5.40
2019-03-05T23:16:17.074Z,5.40
2019-03-05T23:18:46.318Z,5.50
2019-03-05T23:21:34.198Z,5.50
2019-03-05T23:24:02.783Z,5.50
2019-03-05T23:26:31.302Z,5.50
2019-03-05T23:28:59.770Z,5.50
2019-03-05T23:31:28.416Z,5.50
2019-03-05T23:34:18.462Z,5.50
2019-03-05T23:36:46.393Z,5.50
2019-03-05T23:39:15.239Z,5.50
2019-03-05T23:41:43.766Z,5.40
2019-03-05T23:44:12.449Z,5.40
2019-03-05T23:46:40.937Z,5.30
2019-03-05T23:49:09.666Z,5.40
2019-03-05T23:51:38.107Z,5.40
2019-03-05T23:54:06.619Z,5.40
2019-03-05T23:56:35.347Z,5.40
2019-03-05T23:59:03.787Z,5.40
